Avon, UT

9:14 PM MDT on October 21, 2014 (GMT -0600)
Mouth of BSF Canyon | Change Station
CLOSE
Current Station
Personal Weather Station
Location: Hyrum, UT
Elevation: 4829 ft
Nearby Weather Stations

Elev 4829 ft 41.63 °N, 111.82 °W | Updated 9 seconds ago

Partly Cloudy
Partly Cloudy
40.1 °F
Feels Like 40 °F
N
0.7
Wind Variable Wind from North
Gusts 116.0 mph

Today
High -- | Low -- °F
--% Chance of Precip.
Yesterday
High -- | Low -- °F
Precip. -- in
7:46 AM 6:36 PM
Waning Crescent, 3% visible
Pressure 30.08 in
Visibility 10.0 miles
Clouds Clear
Windchill 40 °F
Dew Point 31 °F
Humidity 70%
Rainfall 0.00 in
Snow Depth 0 in , 1 in , 0 in
UV 0 out of 12
Pollen 2.10 out of 12
PM2.5 Good
Flu Activity Sporadic
METAR KBMC 220255Z AUTO 34008KT 10SM CLR 10/00 A3008 RMK AO1 T01001003

More Conditions Fewer Conditions

Pressure 30.08 in
Visibility 10.0 miles
Clouds Clear
Windchill 40 °F
Dew Point 31 °F
Humidity 70%
Rainfall 0.00 in
Snow Depth 0 in , 1 in , 0 in
UV 0 out of 12
Pollen 2.10 out of 12
PM2.5 Good
Flu Activity Sporadic
METAR KBMC 220255Z AUTO 34008KT 10SM CLR 10/00 A3008 RMK AO1 T01001003

More Conditions Fewer Conditions

10-Day Weather Forecast

Almanac

Astronomy

Oct. 21, 2014 Rise Set
Actual Time 7:46 AM MDT 6:36 PM MDT
Civil Twilight 7:17 AM MDT 7:05 PM MDT
Nautical Twilight 6:45 AM MDT 7:37 PM MDT
Astronomical Twilight 6:13 AM MDT 8:09 PM MDT
Moon 5:32 AM MDT (10/21) 5:34 PM MDT (10/21)
Length of Visible Light 11h 47m
Length of Day
10h 50m
Tomorrow will be 2m 37s shorter.
Waning Crescent, 3% of the Moon is Illuminated
Today
Waning Crescent
Oct 23
New
Oct 30
First Quarter
Nov 6
Full
Nov 14
Last Quarter

Today's Extremes

State Highs State Lows

Community

WunderPhotos

Upload Photos

1,763,869 photos uploaded!

Nearby

Air Quality

  Air Quality AQ Index Pollutant
Yesterday Good
PM2.5
Current Good
PM2.5

Snow Depth

Station Depth Elevation
Little Bear 0 in 6550 ft
Ben Lomond Trail 1 in 6000 ft
Ben Lomond Peak 0 in 8000 ft
Monte Cristo 0 in 8960 ft
Temple Fork 0 in 7406 ft

Earthquake Activity

City Distance Mag. Time & Date
No recent earthquake activity has been reported nearby.
Minimum magnitude displayed is 2.5.

Coastal Water Temperatures

Place Temperature
No Stations Reporting

Nearby Weather Stations